Ronco, PA (15476)

4:51 AM EDT on May 30, 2015 (GMT -0400)
HillTop Rices Landing | | Change Station
CLOSE
Current Station
Personal Weather Station
Location: Rices Landing, PA
Elevation: 1118 ft
Nearby Weather Stations

Elev 1118 ft 39.93 °N, 79.95 °W | Updated 24 minutes ago

Clear
Clear
68.1 °F
Feels Like 68.1 °F
N
2.0
Wind Variable Wind from SSE
Gusts 4.0 mph

Today
High -- | Low -- °F
--% Chance of Precip.
Yesterday
High -- | Low -- °F
Precip. -- in
5:54 AM 8:40 PM
Waxing Gibbous, 89% visible
Pressure 30.12 in
Visibility 10.0 miles
Clouds Clear
Dew Point 64 °F
Humidity 87%
Rainfall 0.00 in
Snow Depth Not available.
UV 0 out of 12
Pollen 8.10 out of 12
Air Quality Not available.
Flu Activity Sporadic
METAR KMGW 300753Z AUTO 00000KT 10SM CLR 21/16 A3014 RMK AO2 SLP199 T02060156 TSNO

More Conditions Fewer Conditions

Pressure 30.12 in
Visibility 10.0 miles
Clouds Clear
Dew Point 64 °F
Humidity 87%
Rainfall 0.00 in
Snow Depth Not available.
UV 0 out of 12
Pollen 8.10 out of 12
Air Quality Not available.
Flu Activity Sporadic
METAR KMGW 300753Z AUTO 00000KT 10SM CLR 21/16 A3014 RMK AO2 SLP199 T02060156 TSNO

More Conditions Fewer Conditions

10-Day Weather Forecast

Almanac

Astronomy

May. 30, 2015 Rise Set
Actual Time
Civil Twilight
Nautical Twilight
Astronomical Twilight
Moon
Length of Visible Light
Length of Day
Tomorrow will be .
, % of the Moon is Illuminated

Today's Extremes

State Highs State Lows

Community

WunderPhotos

Upload Photos

1,825,472 photos uploaded!

WunderBlogs® & News

Nearby

Air Quality

  Air Quality AQ Index Pollutant
Not available.

Snow Depth

Station Depth Elevation

Earthquake Activity

City Distance Mag. Time & Date
Minimum magnitude displayed is 2.5.

Coastal Water Temperatures

Place Temperature

Stations

Nearby Weather Stations

Station Location Temp. Windchill Dew Point Humidity Wind Precip. Elev Updated Type